^^
Saratoga-Weather Station Historical Data
Daily Summary for September 24, 2021 Units:  Metric    English   Both
Daily Weekly Monthly Yearly Custom
  High: Low: Average:
Temperature: 22.4 °C 9.4 °C 15.4 °C
Dew Point: 15 °C 8.6 °C 11.9 °C
Humidity: 96% 58% 81%
Wind Speed: 14.3km/h 0km/h 1.7km/h
Wind Gust: 17.7km/h - -
Wind- - West
Pressure: 1019.0 hPa 1015.6 hPa -
Precipitation: 0.0 mm    
Historical Graphs
 
 
Tabular Data for September 24, 2021
Time Temperature Dew Point Pressure Wind Wind Speed Wind Gust Humidity Rainfall Rate (Hourly) solar
00:04 13.2 °C 11.1 °C 1018.6 hPa NNW 1.4 km/h 11.3 km/h 87% 0.0 mm 0 W/m2
00:09 13.6 °C 11.1 °C 1018.6 hPa Calm   3.2 km/h 85% 0.0 mm 0 W/m2
00:14 13.7 °C 11 °C 1018.6 hPa NW 1.4 km/h 6.4 km/h 84% 0.0 mm 0 W/m2
00:19 13.6 °C 10.8 °C 1018.6 hPa Calm   1.6 km/h 83% 0.0 mm 0 W/m2
00:24 13.4 °C 10.8 °C 1018.6 hPa Calm   3.2 km/h 84% 0.0 mm 0 W/m2
00:29 13.3 °C 10.7 °C 1018.6 hPa NW 1.4 km/h 4.8 km/h 84% 0.0 mm 0 W/m2
00:34 13.2 °C 10.7 °C 1018.6 hPa NW 4.7 km/h 6.4 km/h 85% 0.0 mm 0 W/m2
00:39 13.3 °C 10.8 °C 1018.6 hPa Calm   1.6 km/h 85% 0.0 mm 0 W/m2
00:44 13.3 °C 10.8 °C 1018.6 hPa Calm   6.4 km/h 85% 0.0 mm 0 W/m2
00:49 13.1 °C 10.6 °C 1019.0 hPa Calm     85% 0.0 mm 0 W/m2
00:54 12.9 °C 10.4 °C 1019.0 hPa Calm   4.8 km/h 85% 0.0 mm 0 W/m2
00:59 12.8 °C 10.5 °C 1019.0 hPa Calm   3.2 km/h 86% 0.0 mm 0 W/m2
01:04 12.6 °C 10.3 °C 1019.0 hPa Calm     86% 0.0 mm 0 W/m2
01:09 12.4 °C 10.1 °C 1019.0 hPa Calm     86% 0.0 mm 0 W/m2
01:14 12.3 °C 10.2 °C 1019.0 hPa West 1.4 km/h 3.2 km/h 87% 0.0 mm 0 W/m2
01:19 12.2 °C 10.1 °C 1019.0 hPa Calm     87% 0.0 mm 0 W/m2
01:24 12.1 °C 10.2 °C 1019.0 hPa West 3.2 km/h 3.2 km/h 88% 0.0 mm 0 W/m2
01:29 11.9 °C 10.1 °C 1019.0 hPa Calm   3.2 km/h 89% 0.0 mm 0 W/m2
01:34 11.8 °C 10 °C 1019.0 hPa Calm     89% 0.0 mm 0 W/m2
01:39 11.8 °C 10 °C 1018.6 hPa West 3.2 km/h 3.2 km/h 89% 0.0 mm 0 W/m2
01:44 11.7 °C 10.1 °C 1018.6 hPa West 1.4 km/h 3.2 km/h 90% 0.0 mm 0 W/m2
01:49 11.7 °C 10.1 °C 1018.6 hPa West 3.2 km/h 4.8 km/h 90% 0.0 mm 0 W/m2
01:54 11.6 °C 10 °C 1018.6 hPa West 1.4 km/h 3.2 km/h 90% 0.0 mm 0 W/m2
01:59 11.6 °C 10 °C 1018.6 hPa WNW 1.4 km/h 3.2 km/h 90% 0.0 mm 0 W/m2
02:04 11.5 °C 9.9 °C 1018.6 hPa WNW 3.2 km/h 3.2 km/h 90% 0.0 mm 0 W/m2
02:09 11.5 °C 10.1 °C 1018.6 hPa WNW 1.4 km/h 1.6 km/h 91% 0.0 mm 0 W/m2
02:14 11.4 °C 10 °C 1018.6 hPa WNW 1.4 km/h 3.2 km/h 91% 0.0 mm 0 W/m2
02:19 11.4 °C 10 °C 1018.6 hPa Calm   3.2 km/h 91% 0.0 mm 0 W/m2
02:24 11.4 °C 10 °C 1018.6 hPa Calm     91% 0.0 mm 0 W/m2
02:29 11.3 °C 9.9 °C 1018.6 hPa Calm   3.2 km/h 91% 0.0 mm 0 W/m2
02:34 11.3 °C 9.9 °C 1018.6 hPa Calm   1.6 km/h 91% 0.0 mm 0 W/m2
02:39 11.2 °C 9.9 °C 1018.6 hPa Calm   1.6 km/h 92% 0.0 mm 0 W/m2
02:44 11.2 °C 9.9 °C 1018.6 hPa Calm     92% 0.0 mm 0 W/m2
02:49 11.2 °C 9.9 °C 1018.6 hPa Calm     92% 0.0 mm 0 W/m2
02:54 11.1 °C 9.8 °C 1018.6 hPa Calm     92% 0.0 mm 0 W/m2
02:59 11.1 °C 9.8 °C 1018.6 hPa Calm     92% 0.0 mm 0 W/m2
03:04 11.1 °C 9.8 °C 1018.6 hPa Calm     92% 0.0 mm 0 W/m2
03:09 11.1 °C 9.8 °C 1018.6 hPa Calm     92% 0.0 mm 0 W/m2
03:14 11 °C 9.8 °C 1018.6 hPa Calm     92% 0.0 mm 0 W/m2
03:19 11 °C 9.9 °C 1018.3 hPa Calm     93% 0.0 mm 0 W/m2
03:24 10.9 °C 9.7 °C 1018.3 hPa Calm     92% 0.0 mm 0 W/m2
03:29 10.9 °C 9.7 °C 1018.3 hPa Calm     92% 0.0 mm 0 W/m2
03:34 10.8 °C 9.6 °C 1018.3 hPa Calm     92% 0.0 mm 0 W/m2
03:39 10.8 °C 9.7 °C 1018.3 hPa Calm     93% 0.0 mm 0 W/m2
03:44 10.7 °C 9.6 °C 1018.3 hPa Calm     93% 0.0 mm 0 W/m2
03:49 10.7 °C 9.6 °C 1018.3 hPa Calm     93% 0.0 mm 0 W/m2
03:54 10.6 °C 9.5 °C 1018.3 hPa Calm     93% 0.0 mm 0 W/m2
03:59 10.6 °C 9.5 °C 1018.0 hPa Calm     93% 0.0 mm 0 W/m2
04:04 10.5 °C 9.4 °C 1018.0 hPa Calm     93% 0.0 mm 0 W/m2
04:09 10.4 °C 9.3 °C 1018.0 hPa Calm     93% 0.0 mm 0 W/m2
04:14 10.4 °C 9.3 °C 1018.0 hPa Calm     93% 0.0 mm 0 W/m2
04:19 10.4 °C 9.3 °C 1018.3 hPa Calm     93% 0.0 mm 0 W/m2
04:25 10.4 °C 9.5 °C 1018.3 hPa Calm     94% 0.0 mm 0 W/m2
04:30 10.4 °C 9.5 °C 1018.3 hPa Calm     94% 0.0 mm 0 W/m2
04:35 10.3 °C 9.4 °C 1018.3 hPa Calm     94% 0.0 mm 0 W/m2
04:40 10.3 °C 9.4 °C 1018.3 hPa Calm     94% 0.0 mm 0 W/m2
04:45 10.3 °C 9.4 °C 1018.3 hPa Calm     94% 0.0 mm 0 W/m2
04:50 10.3 °C 9.4 °C 1018.0 hPa Calm     94% 0.0 mm 0 W/m2
04:55 10.3 °C 9.4 °C 1018.0 hPa Calm     94% 0.0 mm 0 W/m2
05:00 10.3 °C 9.4 °C 1018.0 hPa Calm     94% 0.0 mm 0 W/m2
05:05 10.3 °C 9.4 °C 1018.3 hPa Calm     94% 0.0 mm 0 W/m2
05:10 10.3 °C 9.4 °C 1018.3 hPa Calm   1.6 km/h 94% 0.0 mm 0 W/m2
05:15 10.3 °C 9.4 °C 1018.3 hPa Calm   3.2 km/h 94% 0.0 mm 0 W/m2
05:20 10.3 °C 9.4 °C 1018.0 hPa Calm     94% 0.0 mm 0 W/m2
05:25 10.2 °C 9.3 °C 1018.3 hPa WNW 1.4 km/h 3.2 km/h 94% 0.0 mm 0 W/m2
05:30 10.2 °C 9.3 °C 1018.0 hPa Calm     94% 0.0 mm 0 W/m2
05:35 10.2 °C 9.3 °C 1018.0 hPa Calm   3.2 km/h 94% 0.0 mm 0 W/m2
05:40 10.2 °C 9.4 °C 1018.0 hPa Calm     95% 0.0 mm 0 W/m2
05:45 10.2 °C 9.4 °C 1018.0 hPa Calm     95% 0.0 mm 0 W/m2
05:50 10.2 °C 9.3 °C 1018.0 hPa Calm     94% 0.0 mm 0 W/m2
05:55 10.1 °C 9.2 °C 1018.0 hPa Calm     94% 0.0 mm 0 W/m2
06:00 10 °C 9.2 °C 1018.0 hPa Calm     95% 0.0 mm 0 W/m2
06:05 10 °C 9.2 °C 1018.3 hPa Calm     95% 0.0 mm 0 W/m2
06:10 9.9 °C 9.1 °C 1018.3 hPa Calm     95% 0.0 mm 0 W/m2
06:15 9.9 °C 9.1 °C 1018.3 hPa Calm     95% 0.0 mm 0 W/m2
06:20 9.9 °C 9.1 °C 1018.3 hPa Calm     95% 0.0 mm 0 W/m2
06:25 9.9 °C 9.1 °C 1018.3 hPa Calm     95% 0.0 mm 0 W/m2
06:30 9.9 °C 9.1 °C 1018.3 hPa Calm     95% 0.0 mm 0 W/m2
06:35 9.9 °C 9.1 °C 1018.3 hPa Calm     95% 0.0 mm 0 W/m2
06:40 9.8 °C 9 °C 1018.3 hPa Calm     95% 0.0 mm 0 W/m2
06:45 9.8 °C 9 °C 1018.3 hPa Calm     95% 0.0 mm 0 W/m2
06:50 9.7 °C 8.9 °C 1018.3 hPa Calm     95% 0.0 mm 0 W/m2
06:55 9.7 °C 8.9 °C 1018.0 hPa Calm     95% 0.0 mm 0 W/m2
07:00 9.7 °C 8.9 °C 1018.3 hPa Calm   1.6 km/h 95% 0.0 mm 0 W/m2
07:05 9.6 °C 8.8 °C 1018.3 hPa Calm     95% 0.0 mm 0 W/m2
07:10 9.6 °C 8.8 °C 1018.3 hPa Calm   1.6 km/h 95% 0.0 mm 0 W/m2
07:15 9.6 °C 8.8 °C 1018.3 hPa Calm     95% 0.0 mm 0 W/m2
07:20 9.5 °C 8.7 °C 1018.3 hPa Calm     95% 0.0 mm 0 W/m2
07:25 9.4 °C 8.6 °C 1018.3 hPa Calm     95% 0.0 mm 0 W/m2
07:30 9.4 °C 8.6 °C 1018.3 hPa Calm     95% 0.0 mm 5 W/m2
07:35 9.4 °C 8.6 °C 1018.0 hPa Calm     95% 0.0 mm 7 W/m2
08:12 10 °C 9.4 °C 1018.3 hPa Calm   1.6 km/h 96% 0.0 mm 21 W/m2
08:17 10.1 °C 9.5 °C 1018.3 hPa WNW 1.4 km/h 3.2 km/h 96% 0.0 mm 23 W/m2
08:22 10.2 °C 9.6 °C 1018.3 hPa West 3.2 km/h 3.2 km/h 96% 0.0 mm 25 W/m2
08:27 10.3 °C 9.7 °C 1018.3 hPa Calm   3.2 km/h 96% 0.0 mm 28 W/m2
08:32 10.4 °C 9.8 °C 1018.3 hPa Calm   3.2 km/h 96% 0.0 mm 30 W/m2
08:37 10.5 °C 9.9 °C 1018.3 hPa Calm     96% 0.0 mm 32 W/m2
08:42 10.6 °C 10 °C 1018.3 hPa Calm   3.2 km/h 96% 0.0 mm 33 W/m2
08:47 10.6 °C 10 °C 1018.3 hPa WSW 1.4 km/h 1.6 km/h 96% 0.0 mm 35 W/m2
08:52 10.7 °C 10.1 °C 1018.3 hPa Calm   1.6 km/h 96% 0.0 mm 35 W/m2
08:57 10.8 °C 10.2 °C 1018.3 hPa Calm     96% 0.0 mm 37 W/m2
09:02 10.9 °C 10.3 °C 1018.3 hPa Calm     96% 0.0 mm 39 W/m2
09:07 11.1 °C 10.5 °C 1018.3 hPa Calm     96% 0.0 mm 109 W/m2
09:12 11.3 °C 10.7 °C 1018.3 hPa Calm     96% 0.0 mm 181 W/m2
09:17 11.6 °C 11 °C 1018.3 hPa WNW 1.4 km/h 1.6 km/h 96% 0.0 mm 195 W/m2
09:22 11.9 °C 11.3 °C 1018.3 hPa Calm     96% 0.0 mm 209 W/m2
09:27 12.2 °C 11.6 °C 1018.3 hPa Calm     96% 0.0 mm 223 W/m2
09:32 12.6 °C 12 °C 1018.3 hPa Calm     96% 0.0 mm 234 W/m2
09:37 13.1 °C 12.5 °C 1018.3 hPa NNW 1.4 km/h 3.2 km/h 96% 0.0 mm 251 W/m2
09:42 13.5 °C 12.7 °C 1018.3 hPa NE 1.4 km/h 3.2 km/h 95% 0.0 mm 264 W/m2
09:47 14 °C 13 °C 1018.3 hPa Calm   3.2 km/h 94% 0.0 mm 276 W/m2
09:52 14.5 °C 13.2 °C 1018.3 hPa SW 1.4 km/h 4.8 km/h 92% 0.0 mm 290 W/m2
09:57 14.8 °C 13.3 °C 1018.3 hPa Calm     91% 0.0 mm 299 W/m2
10:02 15.2 °C 13.2 °C 1018.6 hPa WNW 1.4 km/h 4.8 km/h 88% 0.0 mm 309 W/m2
10:07 15.3 °C 13 °C 1018.6 hPa West 4.7 km/h 14.5 km/h 86% 0.0 mm 327 W/m2
10:12 15.3 °C 13 °C 1018.6 hPa NW 7.9 km/h 11.3 km/h 86% 0.0 mm 353 W/m2
10:17 15.3 °C 12.8 °C 1018.6 hPa WNW 4.7 km/h 6.4 km/h 85% 0.0 mm 388 W/m2
10:22 15.4 °C 12.9 °C 1018.6 hPa NW 4.7 km/h 8 km/h 85% 0.0 mm 313 W/m2
10:27 15.6 °C 13.1 °C 1018.6 hPa NW 1.4 km/h 6.4 km/h 85% 0.0 mm 290 W/m2
10:32 15.8 °C 13.5 °C 1018.6 hPa Calm   1.6 km/h 86% 0.0 mm 404 W/m2
10:37 16 °C 13.3 °C 1018.3 hPa WNW 7.9 km/h 14.5 km/h 84% 0.0 mm 439 W/m2
10:42 16.2 °C 13.5 °C 1018.3 hPa SW 1.4 km/h 9.7 km/h 84% 0.0 mm 469 W/m2
10:47 16.4 °C 13.5 °C 1018.6 hPa WNW 11.1 km/h 14.5 km/h 83% 0.0 mm 232 W/m2
10:52 16.5 °C 13.4 °C 1018.3 hPa NW 3.2 km/h 4.8 km/h 82% 0.0 mm 257 W/m2
10:57 16.7 °C 13.6 °C 1018.3 hPa WSW 1.4 km/h 6.4 km/h 82% 0.0 mm 302 W/m2
11:02 16.9 °C 13.8 °C 1018.3 hPa NW 4.7 km/h 8 km/h 82% 0.0 mm 473 W/m2
11:07 17.2 °C 13.9 °C 1018.3 hPa WNW 3.2 km/h 17.7 km/h 81% 0.0 mm 475 W/m2
11:12 17.4 °C 14.1 °C 1018.3 hPa West 3.2 km/h 11.3 km/h 81% 0.0 mm 489 W/m2
11:17 17.5 °C 14 °C 1018.3 hPa West 6.4 km/h 17.7 km/h 80% 0.0 mm 494 W/m2
11:22 17.7 °C 14.2 °C 1018.3 hPa WSW 6.4 km/h 12.9 km/h 80% 0.0 mm 508 W/m2
11:27 17.8 °C 14.1 °C 1018.3 hPa WNW 4.7 km/h 11.3 km/h 79% 0.0 mm 513 W/m2
11:32 17.9 °C 14 °C 1018.3 hPa NW 3.2 km/h 11.3 km/h 78% 0.0 mm 522 W/m2
11:37 18 °C 14.1 °C 1018.3 hPa SW 7.9 km/h 9.7 km/h 78% 0.0 mm 533 W/m2
11:42 18.1 °C 14.2 °C 1018.3 hPa West 14.3 km/h 16.1 km/h 78% 0.0 mm 541 W/m2
11:47 18.2 °C 14.1 °C 1018.3 hPa NW 4.7 km/h 11.3 km/h 77% 0.0 mm 545 W/m2
11:52 18.2 °C 14.1 °C 1018.3 hPa WSW 4.7 km/h 14.5 km/h 77% 0.0 mm 554 W/m2
11:57 18.3 °C 14 °C 1018.0 hPa West 3.2 km/h 14.5 km/h 76% 0.0 mm 561 W/m2
12:02 18.4 °C 14.1 °C 1018.3 hPa WNW 13 km/h 12.9 km/h 76% 0.0 mm 568 W/m2
12:07 18.6 °C 14.1 °C 1018.0 hPa NW 6.4 km/h 9.7 km/h 75% 0.0 mm 577 W/m2
12:12 18.7 °C 14.2 °C 1018.0 hPa NW 4.7 km/h 11.3 km/h 75% 0.0 mm 584 W/m2
12:17 18.7 °C 14 °C 1018.3 hPa NW 3.2 km/h 12.9 km/h 74% 0.0 mm 589 W/m2
12:22 18.8 °C 14.3 °C 1018.0 hPa NW 4.7 km/h 9.7 km/h 75% 0.0 mm 592 W/m2
12:27 18.8 °C 14.1 °C 1018.3 hPa WSW 4.7 km/h 9.7 km/h 74% 0.0 mm 613 W/m2
12:32 18.9 °C 14.2 °C 1018.3 hPa WNW 9.7 km/h 12.9 km/h 74% 0.0 mm 626 W/m2
12:37 19.1 °C 14.1 °C 1018.3 hPa Calm   6.4 km/h 73% 0.0 mm 652 W/m2
12:42 19.2 °C 14.5 °C 1018.3 hPa WNW 1.4 km/h 3.2 km/h 74% 0.0 mm 629 W/m2
12:47 19.4 °C 14.4 °C 1018.0 hPa WNW 3.2 km/h 6.4 km/h 73% 0.0 mm 619 W/m2
12:52 19.6 °C 14.6 °C 1018.0 hPa NW 4.7 km/h 12.9 km/h 73% 0.0 mm 722 W/m2
12:57 19.6 °C 14.4 °C 1018.0 hPa NW 4.7 km/h 4.8 km/h 72% 0.0 mm 740 W/m2
13:02 19.8 °C 14.6 °C 1018.0 hPa WSW 1.4 km/h 4.8 km/h 72% 0.0 mm 745 W/m2
13:07 19.9 °C 14.5 °C 1018.0 hPa West 4.7 km/h 11.3 km/h 71% 0.0 mm 267 W/m2
13:12 19.8 °C 14.4 °C 1018.0 hPa NW 3.2 km/h 8 km/h 71% 0.0 mm 269 W/m2
13:17 19.9 °C 14.5 °C 1018.0 hPa West 3.2 km/h 4.8 km/h 71% 0.0 mm 253 W/m2
13:22 20.2 °C 15 °C 1018.0 hPa West 6.4 km/h 14.5 km/h 72% 0.0 mm 858 W/m2
13:27 20.4 °C 14.5 °C 1018.0 hPa West 3.2 km/h 6.4 km/h 69% 0.0 mm 805 W/m2
13:32 20.3 °C 14.4 °C 1018.0 hPa WNW 3.2 km/h 14.5 km/h 69% 0.0 mm 306 W/m2
13:37 20.1 °C 14.2 °C 1018.0 hPa NW 1.4 km/h 9.7 km/h 69% 0.0 mm 274 W/m2
13:42 20.1 °C 14.5 °C 1018.0 hPa WNW 7.9 km/h 14.5 km/h 70% 0.0 mm 264 W/m2
13:47 20.1 °C 14.5 °C 1018.0 hPa SW 3.2 km/h 4.8 km/h 70% 0.0 mm 160 W/m2
13:52 20 °C 14.4 °C 1018.0 hPa West 3.2 km/h 12.9 km/h 70% 0.0 mm 165 W/m2
13:57 20.1 °C 14.5 °C 1017.6 hPa WNW 3.2 km/h 3.2 km/h 70% 0.0 mm 749 W/m2
14:02 20.3 °C 14.6 °C 1017.6 hPa Calm   1.6 km/h 70% 0.0 mm 744 W/m2
14:07 20.6 °C 14.5 °C 1017.6 hPa West 9.7 km/h 14.5 km/h 68% 0.0 mm 763 W/m2
14:12 20.5 °C 14.2 °C 1017.6 hPa West 9.7 km/h 12.9 km/h 67% 0.0 mm 141 W/m2
14:17 20.2 °C 13.9 °C 1017.6 hPa WNW 6.4 km/h 14.5 km/h 67% 0.0 mm 137 W/m2
14:22 20 °C 13.9 °C 1017.6 hPa West 3.2 km/h 6.4 km/h 68% 0.0 mm 134 W/m2
14:27 19.9 °C 14 °C 1017.6 hPa West 3.2 km/h 11.3 km/h 69% 0.0 mm 633 W/m2
14:32 20.3 °C 14.2 °C 1017.3 hPa West 6.4 km/h 14.5 km/h 68% 0.0 mm 722 W/m2
14:37 20.4 °C 14.1 °C 1017.3 hPa NW 4.7 km/h 6.4 km/h 67% 0.0 mm 167 W/m2
14:42 20.6 °C 14.5 °C 1017.3 hPa West 9.7 km/h 14.5 km/h 68% 0.0 mm 656 W/m2
14:47 20.7 °C 14.1 °C 1017.3 hPa NNW 3.2 km/h 6.4 km/h 66% 0.0 mm 626 W/m2
14:52 20.7 °C 14.4 °C 1016.9 hPa West 4.7 km/h 6.4 km/h 67% 0.0 mm 717 W/m2
14:57 21 °C 14.4 °C 1016.9 hPa North 1.4 km/h 4.8 km/h 66% 0.0 mm 650 W/m2
15:02 21.2 °C 14.6 °C 1016.9 hPa NNW 1.4 km/h 6.4 km/h 66% 0.0 mm 599 W/m2
15:07 21.3 °C 14.7 °C 1016.9 hPa WSW 4.7 km/h 9.7 km/h 66% 0.0 mm 601 W/m2
15:12 21.3 °C 14.5 °C 1016.9 hPa NNW 3.2 km/h 8 km/h 65% 0.0 mm 603 W/m2
15:17 21.5 °C 14.6 °C 1016.9 hPa Calm   4.8 km/h 65% 0.0 mm 589 W/m2
15:23 21.8 °C 14.7 °C 1016.6 hPa NW 6.4 km/h 14.5 km/h 64% 0.0 mm 575 W/m2
15:28 21.7 °C 14.3 °C 1016.6 hPa SW 3.2 km/h 6.4 km/h 63% 0.0 mm 578 W/m2
15:33 21.9 °C 14.5 °C 1016.6 hPa West 1.4 km/h 14.5 km/h 63% 0.0 mm 564 W/m2
15:38 22.1 °C 14.7 °C 1016.6 hPa WNW 1.4 km/h 3.2 km/h 63% 0.0 mm 550 W/m2
15:43 22.2 °C 14.6 °C 1016.6 hPa WNW 7.9 km/h 11.3 km/h 62% 0.0 mm 541 W/m2
15:48 22.1 °C 14.2 °C 1016.6 hPa NNW 1.4 km/h 6.4 km/h 61% 0.0 mm 538 W/m2
15:53 22.1 °C 14 °C 1016.3 hPa SW 1.4 km/h 11.3 km/h 60% 0.0 mm 517 W/m2
15:58 22.2 °C 14.3 °C 1016.3 hPa NW 1.4 km/h 3.2 km/h 61% 0.0 mm 512 W/m2
16:03 22.2 °C 13.8 °C 1016.3 hPa NW 4.7 km/h 11.3 km/h 59% 0.0 mm 501 W/m2
16:08 22.3 °C 14.4 °C 1016.3 hPa Calm   3.2 km/h 61% 0.0 mm 490 W/m2
16:13 22.4 °C 13.7 °C 1016.3 hPa North 1.4 km/h 8 km/h 58% 0.0 mm 480 W/m2
16:18 22.3 °C 13.9 °C 1015.9 hPa Calm   4.8 km/h 59% 0.0 mm 462 W/m2
16:23 22.3 °C 13.9 °C 1016.3 hPa WNW 4.7 km/h 8 km/h 59% 0.0 mm 461 W/m2
16:28 22.2 °C 14.1 °C 1016.3 hPa East 3.2 km/h 4.8 km/h 60% 0.0 mm 432 W/m2
16:33 22.3 °C 14.2 °C 1016.3 hPa West 4.7 km/h 9.7 km/h 60% 0.0 mm 394 W/m2
16:38 22.3 °C 14.2 °C 1015.9 hPa SSE 1.4 km/h 4.8 km/h 60% 0.0 mm 387 W/m2
16:43 22.4 °C 14.5 °C 1015.9 hPa West 3.2 km/h 6.4 km/h 61% 0.0 mm 406 W/m2
16:48 22.4 °C 13.7 °C 1015.9 hPa WSW 3.2 km/h 6.4 km/h 58% 0.0 mm 401 W/m2
16:53 22.3 °C 13.9 °C 1015.9 hPa Calm   6.4 km/h 59% 0.0 mm 387 W/m2
16:58 22.4 °C 13.7 °C 1015.9 hPa Calm   1.6 km/h 58% 0.0 mm 373 W/m2
17:03 22.4 °C 14 °C 1015.9 hPa Calm   4.8 km/h 59% 0.0 mm 359 W/m2
17:08 22.4 °C 13.7 °C 1015.9 hPa WNW 1.4 km/h 8 km/h 58% 0.0 mm 346 W/m2
17:13 22.4 °C 14 °C 1015.9 hPa NE 1.4 km/h 4.8 km/h 59% 0.0 mm 334 W/m2
17:18 22.4 °C 14.3 °C 1015.6 hPa Calm   1.6 km/h 60% 0.0 mm 322 W/m2
17:23 22.4 °C 14 °C 1015.9 hPa North 3.2 km/h 3.2 km/h 59% 0.0 mm 306 W/m2
17:28 22.4 °C 14.3 °C 1015.6 hPa ESE 1.4 km/h 3.2 km/h 60% 0.0 mm 292 W/m2
17:33 22.4 °C 14.3 °C 1015.6 hPa WSW 3.2 km/h 4.8 km/h 60% 0.0 mm 279 W/m2
17:38 22.4 °C 14 °C 1015.6 hPa WNW 3.2 km/h 6.4 km/h 59% 0.0 mm 267 W/m2
17:43 22.4 °C 14 °C 1015.6 hPa WNW 1.4 km/h 3.2 km/h 59% 0.0 mm 253 W/m2
17:48 22.4 °C 14.8 °C 1015.6 hPa NW 1.4 km/h 6.4 km/h 62% 0.0 mm 237 W/m2
17:53 22.4 °C 15 °C 1015.6 hPa WSW 3.2 km/h 3.2 km/h 63% 0.0 mm 223 W/m2
17:58 22.4 °C 14.5 °C 1015.6 hPa WSW 1.4 km/h 3.2 km/h 61% 0.0 mm 211 W/m2
18:03 22.3 °C 14.9 °C 1015.6 hPa WSW 1.4 km/h 1.6 km/h 63% 0.0 mm 179 W/m2
18:08 22.1 °C 14.5 °C 1015.6 hPa West 3.2 km/h 4.8 km/h 62% 0.0 mm 149 W/m2
18:13 21.9 °C 14.5 °C 1015.6 hPa Calm   1.6 km/h 63% 0.0 mm 169 W/m2
18:18 21.9 °C 14.8 °C 1015.6 hPa Calm   4.8 km/h 64% 0.0 mm 151 W/m2
18:23 21.8 °C 14.9 °C 1015.6 hPa Calm   1.6 km/h 65% 0.0 mm 100 W/m2
18:28 21.6 °C 14.7 °C 1015.6 hPa Calm     65% 0.0 mm 28 W/m2
18:33 21.2 °C 14.6 °C 1015.6 hPa Calm     66% 0.0 mm 26 W/m2
18:38 20.8 °C 14.4 °C 1015.6 hPa West 1.4 km/h 1.6 km/h 67% 0.0 mm 23 W/m2
18:43 20.4 °C 14.3 °C 1015.6 hPa West 1.4 km/h 1.6 km/h 68% 0.0 mm 21 W/m2
18:48 20.2 °C 14.3 °C 1015.6 hPa West 1.4 km/h 3.2 km/h 69% 0.0 mm 19 W/m2
18:53 19.8 °C 14.2 °C 1015.6 hPa Calm   1.6 km/h 70% 0.0 mm 18 W/m2
18:58 19.5 °C 13.9 °C 1015.6 hPa Calm     70% 0.0 mm 16 W/m2
19:03 19.2 °C 13.8 °C 1015.6 hPa Calm     71% 0.0 mm 14 W/m2
19:08 18.9 °C 13.7 °C 1015.6 hPa Calm     72% 0.0 mm 12 W/m2
19:13 18.7 °C 13.8 °C 1015.6 hPa Calm     73% 0.0 mm 11 W/m2
19:18 18.4 °C 13.5 °C 1015.6 hPa Calm     73% 0.0 mm 9 W/m2
19:23 18.1 °C 13.4 °C 1015.9 hPa WSW 1.4 km/h 1.6 km/h 74% 0.0 mm 7 W/m2
19:28 17.9 °C 13.2 °C 1015.9 hPa WSW 1.4 km/h 1.6 km/h 74% 0.0 mm 5 W/m2
19:33 17.8 °C 12.9 °C 1015.9 hPa SSW 4.7 km/h 6.4 km/h 73% 0.0 mm 0 W/m2
19:39 17.8 °C 12.7 °C 1015.9 hPa NW 3.2 km/h 6.4 km/h 72% 0.0 mm 0 W/m2
19:44 17.9 °C 12.6 °C 1015.9 hPa West 3.2 km/h 6.4 km/h 71% 0.0 mm 0 W/m2
19:49 18.1 °C 12.5 °C 1015.9 hPa West 3.2 km/h 6.4 km/h 70% 0.0 mm 0 W/m2
19:54 18.1 °C 12.3 °C 1015.9 hPa West 3.2 km/h 6.4 km/h 69% 0.0 mm 0 W/m2
19:59 18.1 °C 12.3 °C 1015.9 hPa WSW 3.2 km/h 4.8 km/h 69% 0.0 mm 0 W/m2
20:04 17.9 °C 12.1 °C 1016.3 hPa West 3.2 km/h 8 km/h 69% 0.0 mm 0 W/m2
20:09 17.9 °C 12.1 °C 1016.3 hPa West 6.4 km/h 6.4 km/h 69% 0.0 mm 0 W/m2
20:14 17.8 °C 12 °C 1016.3 hPa WSW 1.4 km/h 4.8 km/h 69% 0.0 mm 0 W/m2
20:19 17.7 °C 11.7 °C 1016.3 hPa West 3.2 km/h 4.8 km/h 68% 0.0 mm 0 W/m2
20:24 17.6 °C 11.8 °C 1016.3 hPa West 3.2 km/h 4.8 km/h 69% 0.0 mm 0 W/m2
20:29 17.5 °C 11.7 °C 1016.3 hPa West 1.4 km/h 6.4 km/h 69% 0.0 mm 0 W/m2
20:34 17.4 °C 11.7 °C 1016.3 hPa WSW 3.2 km/h 4.8 km/h 69% 0.0 mm 0 W/m2
20:39 17.3 °C 12 °C 1016.3 hPa WSW 4.7 km/h 6.4 km/h 71% 0.0 mm 0 W/m2
20:44 17.2 °C 11.7 °C 1016.6 hPa WSW 1.4 km/h 3.2 km/h 70% 0.0 mm 0 W/m2
20:49 17.1 °C 11.8 °C 1016.6 hPa WSW 3.2 km/h 6.4 km/h 71% 0.0 mm 0 W/m2
20:54 16.9 °C 11.8 °C 1016.6 hPa Calm     72% 0.0 mm 0 W/m2
20:59 16.8 °C 11.9 °C 1016.6 hPa Calm     73% 0.0 mm 0 W/m2
21:04 16.5 °C 12.1 °C 1016.6 hPa Calm     75% 0.0 mm 0 W/m2
21:09 16.2 °C 12 °C 1016.6 hPa Calm     76% 0.0 mm 0 W/m2
21:14 15.9 °C 11.7 °C 1016.6 hPa Calm     76% 0.0 mm 0 W/m2
21:19 15.7 °C 11.9 °C 1016.6 hPa Calm   1.6 km/h 78% 0.0 mm 0 W/m2
21:24 15.3 °C 11.7 °C 1016.9 hPa WSW 1.4 km/h 1.6 km/h 79% 0.0 mm 0 W/m2
21:29 15.1 °C 11.5 °C 1016.6 hPa Calm     79% 0.0 mm 0 W/m2
21:34 14.8 °C 11.4 °C 1016.9 hPa WSW 1.4 km/h 3.2 km/h 80% 0.0 mm 0 W/m2
21:39 14.7 °C 11.5 °C 1016.9 hPa Calm     81% 0.0 mm 0 W/m2
21:44 14.5 °C 11.3 °C 1016.9 hPa Calm   3.2 km/h 81% 0.0 mm 0 W/m2
21:49 14.3 °C 11.3 °C 1016.9 hPa Calm     82% 0.0 mm 0 W/m2
21:54 14.1 °C 11.3 °C 1016.9 hPa Calm     83% 0.0 mm 0 W/m2
21:59 13.9 °C 11.1 °C 1016.9 hPa Calm     83% 0.0 mm 0 W/m2
22:04 13.8 °C 11.1 °C 1016.9 hPa Calm     84% 0.0 mm 0 W/m2
22:09 13.7 °C 11.2 °C 1016.9 hPa Calm     85% 0.0 mm 0 W/m2
22:14 13.6 °C 11.1 °C 1016.9 hPa Calm     85% 0.0 mm 0 W/m2
22:19 13.5 °C 11.2 °C 1016.9 hPa Calm     86% 0.0 mm 0 W/m2
22:24 13.4 °C 11.1 °C 1016.9 hPa Calm     86% 0.0 mm 0 W/m2
22:29 13.3 °C 11 °C 1016.9 hPa Calm     86% 0.0 mm 0 W/m2
22:34 13.2 °C 11.1 °C 1016.9 hPa Calm     87% 0.0 mm 0 W/m2
22:39 13.2 °C 11.1 °C 1016.9 hPa Calm     87% 0.0 mm 0 W/m2
22:44 13.1 °C 11 °C 1016.6 hPa Calm     87% 0.0 mm 0 W/m2
22:49 12.9 °C 11 °C 1016.9 hPa Calm     88% 0.0 mm 0 W/m2
22:54 12.9 °C 11 °C 1016.9 hPa Calm     88% 0.0 mm 0 W/m2
22:59 12.8 °C 11 °C 1016.9 hPa Calm     89% 0.0 mm 0 W/m2
23:04 12.7 °C 10.9 °C 1016.9 hPa Calm     89% 0.0 mm 0 W/m2
23:09 12.7 °C 10.9 °C 1016.9 hPa Calm     89% 0.0 mm 0 W/m2
23:14 12.6 °C 11 °C 1016.9 hPa Calm     90% 0.0 mm 0 W/m2
23:19 12.5 °C 10.9 °C 1016.9 hPa Calm     90% 0.0 mm 0 W/m2
23:24 12.4 °C 10.8 °C 1016.9 hPa Calm     90% 0.0 mm 0 W/m2
23:29 12.3 °C 10.7 °C 1016.9 hPa Calm     90% 0.0 mm 0 W/m2
23:34 12.3 °C 10.9 °C 1016.9 hPa Calm     91% 0.0 mm 0 W/m2
23:39 12.2 °C 10.8 °C 1016.6 hPa Calm     91% 0.0 mm 0 W/m2
23:44 12.2 °C 10.8 °C 1016.6 hPa Calm     91% 0.0 mm 0 W/m2
23:49 12.1 °C 10.8 °C 1016.6 hPa Calm     92% 0.0 mm 0 W/m2
23:54 12.1 °C 10.8 °C 1016.6 hPa Calm     92% 0.0 mm 0 W/m2
23:59 11.9 °C 10.6 °C 1016.6 hPa Calm     92% 0.0 mm 0 W/m2
Juneau County Weather
Compliments of Weather Underground - 4 mb